createdAt,value
2018-09-06T00:02:22.823Z,30.57
2018-09-06T00:04:50.184Z,31.50
2018-09-06T00:07:17.560Z,31.00
2018-09-06T00:09:44.899Z,31.53
2018-09-06T00:12:12.261Z,28.80
2018-09-06T00:14:39.611Z,29.20
2018-09-06T00:17:06.939Z,25.83
2018-09-06T00:19:34.348Z,26.97
2018-09-06T00:22:01.691Z,28.37
2018-09-06T00:24:29.036Z,28.63
2018-09-06T00:26:56.384Z,27.63
2018-09-06T00:29:23.719Z,28.87
2018-09-06T00:31:51.193Z,28.70
2018-09-06T00:34:18.532Z,28.53
2018-09-06T00:36:45.888Z,29.40
2018-09-06T00:39:13.280Z,29.63
2018-09-06T00:41:40.868Z,32.53
2018-09-06T00:44:08.208Z,30.77
2018-09-06T00:46:35.568Z,31.73
2018-09-06T00:49:02.883Z,34.80
2018-09-06T00:51:30.292Z,34.53
2018-09-06T00:53:57.667Z,34.67
2018-09-06T00:56:25.040Z,32.23
2018-09-06T00:58:52.431Z,34.07
2018-09-06T01:01:19.800Z,33.60
2018-09-06T01:03:47.125Z,32.23
2018-09-06T01:06:14.473Z,35.43
2018-09-06T01:08:41.829Z,30.47
2018-09-06T01:11:09.172Z,34.43
2018-09-06T01:13:36.585Z,30.07
2018-09-06T01:16:03.997Z,34.90
2018-09-06T01:18:31.384Z,31.47
2018-09-06T01:20:59.830Z,33.37
2018-09-06T01:23:27.191Z,34.90
2018-09-06T01:25:54.536Z,31.77
2018-09-06T01:28:21.919Z,35.67
2018-09-06T01:30:49.646Z,33.97
2018-09-06T01:33:17.002Z,34.13
2018-09-06T01:35:48.923Z,33.53
2018-09-06T01:38:16.705Z,36.33
2018-09-06T01:40:44.109Z,31.70
2018-09-06T01:43:11.464Z,30.40
2018-09-06T01:45:38.809Z,38.07
2018-09-06T01:48:06.178Z,31.80
2018-09-06T01:50:33.549Z,30.20
2018-09-06T01:53:00.885Z,30.27
2018-09-06T01:55:28.218Z,28.93
2018-09-06T01:57:55.591Z,28.23
2018-09-06T02:00:22.931Z,31.67
2018-09-06T02:02:51.442Z,28.13
2018-09-06T02:05:24.552Z,25.50
2018-09-06T02:07:51.915Z,26.53
2018-09-06T02:10:19.256Z,25.73
2018-09-06T02:12:46.587Z,23.10
2018-09-06T02:15:13.917Z,25.27
2018-09-06T02:17:41.255Z,24.30
2018-09-06T02:20:08.595Z,24.80
2018-09-06T02:22:35.942Z,24.60
2018-09-06T02:25:03.327Z,25.00
2018-09-06T02:27:30.667Z,20.37
2018-09-06T02:29:57.991Z,26.13
2018-09-06T02:32:25.520Z,21.60
2018-09-06T02:34:52.864Z,26.30
2018-09-06T02:37:20.197Z,23.13
2018-09-06T02:39:47.528Z,23.20
2018-09-06T02:42:14.916Z,25.40
2018-09-06T02:44:42.300Z,25.50
2018-09-06T02:47:09.628Z,21.97
2018-09-06T02:49:42.652Z,25.80
2018-09-06T02:52:09.992Z,27.20
2018-09-06T02:54:37.322Z,22.37
2018-09-06T02:57:04.666Z,20.57
2018-09-06T02:59:31.995Z,20.90
2018-09-06T03:01:59.324Z,20.97
2018-09-06T03:04:28.185Z,20.67
2018-09-06T03:06:55.514Z,17.90
2018-09-06T03:09:23.200Z,19.83
2018-09-06T03:11:54.039Z,21.80
2018-09-06T03:14:21.435Z,20.10
2018-09-06T03:16:48.808Z,20.53
2018-09-06T03:19:16.135Z,23.17
2018-09-06T03:21:43.474Z,20.37
2018-09-06T03:24:10.813Z,15.63
2018-09-06T03:26:38.159Z,17.53
2018-09-06T03:29:06.956Z,16.37
2018-09-06T03:31:34.308Z,23.10
2018-09-06T03:34:01.664Z,18.70
2018-09-06T03:36:28.987Z,17.63
2018-09-06T03:38:56.333Z,19.67
2018-09-06T03:41:23.663Z,19.30
2018-09-06T03:43:50.996Z,17.80
2018-09-06T03:46:18.375Z,18.63
2018-09-06T03:48:45.757Z,18.73
2018-09-06T03:51:13.144Z,20.10
2018-09-06T03:53:40.500Z,20.37
2018-09-06T03:56:07.836Z,15.70
2018-09-06T03:58:35.230Z,15.93
2018-09-06T04:01:02.614Z,19.63
2018-09-06T04:03:29.919Z,17.50
2018-09-06T04:05:57.249Z,15.87
2018-09-06T04:08:24.823Z,13.47
2018-09-06T04:10:52.164Z,14.90
2018-09-06T04:13:19.508Z,11.80
2018-09-06T04:15:46.843Z,11.37
2018-09-06T04:18:14.231Z,13.57
2018-09-06T04:20:41.576Z,14.27
2018-09-06T04:23:08.907Z,12.57
2018-09-06T04:25:36.259Z,16.30
2018-09-06T04:28:03.595Z,11.60
2018-09-06T04:30:30.922Z,10.30
2018-09-06T04:32:58.255Z,12.00
2018-09-06T04:35:25.624Z,11.20
2018-09-06T04:37:52.955Z,12.93
2018-09-06T04:40:21.579Z,12.80
2018-09-06T04:42:48.925Z,14.97
2018-09-06T04:45:16.256Z,18.93
2018-09-06T04:47:43.603Z,15.07
2018-09-06T04:50:11.052Z,15.27
2018-09-06T04:52:38.386Z,14.53
2018-09-06T04:55:05.732Z,12.37
2018-09-06T04:57:33.279Z,13.53
2018-09-06T05:00:00.621Z,12.90
2018-09-06T05:02:27.966Z,13.23
2018-09-06T05:04:55.304Z,15.03
2018-09-06T05:07:22.789Z,13.40
2018-09-06T05:09:50.139Z,14.23
2018-09-06T05:12:17.459Z,13.43
2018-09-06T05:14:44.844Z,14.50
2018-09-06T05:17:12.278Z,15.57
2018-09-06T05:19:39.616Z,15.30
2018-09-06T05:22:07.144Z,15.97
2018-09-06T05:24:34.628Z,18.97
2018-09-06T05:27:01.996Z,16.80
2018-09-06T05:29:29.343Z,16.43
2018-09-06T05:31:56.755Z,17.70
2018-09-06T05:34:24.104Z,19.40
2018-09-06T05:36:51.431Z,15.83
2018-09-06T05:39:18.821Z,18.17
2018-09-06T05:41:46.172Z,17.30
2018-09-06T05:44:13.541Z,14.53
2018-09-06T05:46:41.268Z,17.67
2018-09-06T05:49:08.644Z,14.40
2018-09-06T05:51:36.418Z,14.33
2018-09-06T05:54:04.033Z,17.97
2018-09-06T05:56:31.381Z,15.70
2018-09-06T05:58:58.958Z,17.73
2018-09-06T06:01:26.331Z,16.30
2018-09-06T06:03:53.674Z,21.67
2018-09-06T06:06:21.197Z,15.63
2018-09-06T06:08:49.631Z,14.33
2018-09-06T06:11:17.747Z,10.57
2018-09-06T06:13:45.104Z,12.07
2018-09-06T06:16:12.861Z,12.43
2018-09-06T06:18:40.204Z,12.00
2018-09-06T06:21:07.551Z,13.33
2018-09-06T06:23:34.893Z,9.23
2018-09-06T06:26:02.316Z,12.10
2018-09-06T06:28:29.636Z,11.57
2018-09-06T06:30:56.975Z,13.30
2018-09-06T06:33:24.314Z,12.33
2018-09-06T06:35:51.653Z,12.87
2018-09-06T06:38:19.012Z,13.63
2018-09-06T06:40:46.367Z,13.37
2018-09-06T06:43:13.754Z,13.47
2018-09-06T06:45:41.119Z,16.80
2018-09-06T06:48:08.516Z,14.70
2018-09-06T06:50:35.989Z,13.30
2018-09-06T06:53:03.348Z,12.27
2018-09-06T06:55:30.706Z,13.00
2018-09-06T06:57:58.041Z,12.97
2018-09-06T07:00:25.404Z,12.67
2018-09-06T07:02:52.750Z,17.00
2018-09-06T07:05:22.409Z,14.80
2018-09-06T07:07:49.892Z,9.10
2018-09-06T07:10:17.291Z,10.43
2018-09-06T07:12:44.645Z,13.00
2018-09-06T07:15:12.075Z,11.30
2018-09-06T07:17:39.440Z,11.97
2018-09-06T07:20:06.840Z,12.60
2018-09-06T07:22:34.165Z,13.10
2018-09-06T07:25:01.733Z,11.43
2018-09-06T07:27:29.094Z,12.37
2018-09-06T07:29:56.740Z,9.80
2018-09-06T07:32:24.124Z,8.37
2018-09-06T07:34:51.459Z,7.50
2018-09-06T07:37:18.796Z,10.70
2018-09-06T07:39:46.119Z,7.57
2018-09-06T07:42:13.487Z,7.30
2018-09-06T07:44:40.921Z,10.83
2018-09-06T07:47:08.300Z,7.87
2018-09-06T07:49:35.656Z,7.73
2018-09-06T07:52:02.995Z,6.43
2018-09-06T07:54:30.366Z,8.03
2018-09-06T07:56:57.716Z,9.63
2018-09-06T07:59:25.066Z,7.17
2018-09-06T08:01:52.419Z,8.47
2018-09-06T08:04:19.775Z,7.43
2018-09-06T08:06:47.154Z,8.60
2018-09-06T08:09:15.521Z,6.80
2018-09-06T08:11:42.857Z,8.30
2018-09-06T08:14:10.236Z,6.23
2018-09-06T08:16:37.654Z,8.03
2018-09-06T08:19:05.120Z,7.13
2018-09-06T08:21:32.448Z,6.90
2018-09-06T08:24:00.024Z,8.00
2018-09-06T08:26:27.500Z,7.63
2018-09-06T08:28:54.851Z,4.87
2018-09-06T08:31:22.239Z,10.60
2018-09-06T08:33:49.823Z,8.67
2018-09-06T08:36:17.168Z,9.10
2018-09-06T08:38:44.521Z,6.70
2018-09-06T08:41:11.850Z,7.87
2018-09-06T08:43:39.208Z,9.00
2018-09-06T08:46:06.536Z,8.33
2018-09-06T08:48:33.876Z,7.33
2018-09-06T08:51:01.224Z,7.40
2018-09-06T08:53:28.588Z,5.93
2018-09-06T08:55:55.933Z,7.47
2018-09-06T08:58:23.336Z,6.97
2018-09-06T09:00:56.148Z,7.23
2018-09-06T09:03:23.523Z,6.03
2018-09-06T09:05:50.866Z,7.93
2018-09-06T09:08:18.254Z,4.97
2018-09-06T09:10:45.563Z,7.53
2018-09-06T09:13:12.939Z,6.77
2018-09-06T09:15:40.376Z,5.83
2018-09-06T09:18:07.735Z,6.93
2018-09-06T09:20:35.132Z,7.07
2018-09-06T09:23:02.471Z,8.83
2018-09-06T09:25:29.874Z,8.43
2018-09-06T09:27:57.251Z,6.57
2018-09-06T09:30:24.614Z,6.33
2018-09-06T09:32:51.926Z,7.93
2018-09-06T09:35:19.284Z,6.70
2018-09-06T09:37:46.643Z,8.57
2018-09-06T09:40:14.042Z,8.47
2018-09-06T09:42:41.548Z,7.50
2018-09-06T09:45:08.905Z,7.13
2018-09-06T09:50:03.125Z,7.53
2018-09-06T09:52:30.480Z,11.20
2018-09-06T09:54:57.819Z,7.20
2018-09-06T09:57:25.190Z,10.27
2018-09-06T09:59:52.524Z,9.40
2018-09-06T10:02:25.451Z,8.07
2018-09-06T10:04:54.927Z,7.67
2018-09-06T10:07:27.818Z,7.57
2018-09-06T10:09:55.157Z,7.77
2018-09-06T10:12:22.507Z,7.83
2018-09-06T10:14:49.867Z,7.67
2018-09-06T10:17:17.243Z,8.23
2018-09-06T10:19:44.589Z,5.33
2018-09-06T10:22:11.949Z,8.60
2018-09-06T10:24:39.283Z,6.27
2018-09-06T10:27:06.667Z,5.83
2018-09-06T10:29:33.991Z,7.57
2018-09-06T10:32:01.342Z,6.23
2018-09-06T10:34:28.681Z,5.33
2018-09-06T10:36:56.039Z,7.13
2018-09-06T10:39:23.464Z,6.27
2018-09-06T10:41:50.784Z,5.07
2018-09-06T10:44:18.144Z,6.13
2018-09-06T10:46:45.483Z,6.20
2018-09-06T10:49:12.836Z,5.70
2018-09-06T10:51:40.325Z,7.63
2018-09-06T10:54:07.650Z,6.23
2018-09-06T10:56:35.051Z,14.70
2018-09-06T10:59:02.386Z,5.23
2018-09-06T11:01:29.808Z,7.03
2018-09-06T11:03:57.532Z,4.93
2018-09-06T11:06:25.096Z,5.80
2018-09-06T11:08:52.617Z,5.93
2018-09-06T11:11:20.047Z,6.63
2018-09-06T11:13:47.410Z,7.20
2018-09-06T11:16:15.073Z,4.90
2018-09-06T11:18:42.413Z,6.60
2018-09-06T11:21:09.979Z,4.60
2018-09-06T11:23:37.333Z,5.87
2018-09-06T11:26:04.754Z,5.10
2018-09-06T11:28:32.103Z,5.57
2018-09-06T11:30:59.467Z,6.13
2018-09-06T11:33:26.912Z,7.50
2018-09-06T11:35:54.244Z,4.40
2018-09-06T11:38:21.593Z,5.50
2018-09-06T11:40:49.084Z,6.57
2018-09-06T11:43:17.196Z,4.87
2018-09-06T11:45:44.543Z,5.63
2018-09-06T11:48:12.012Z,7.90
2018-09-06T11:50:39.418Z,6.10
2018-09-06T11:53:06.760Z,5.00
2018-09-06T11:55:34.106Z,6.47
2018-09-06T11:58:01.440Z,6.80
2018-09-06T12:00:28.841Z,7.17
2018-09-06T12:02:56.209Z,7.27
2018-09-06T12:05:23.556Z,6.63
2018-09-06T12:07:50.944Z,22.17
2018-09-06T12:10:18.467Z,4.97
2018-09-06T12:12:45.815Z,5.03
2018-09-06T12:15:13.227Z,5.80
2018-09-06T12:17:40.712Z,4.70
2018-09-06T12:20:08.068Z,7.10
2018-09-06T12:22:35.428Z,7.47
2018-09-06T12:25:02.840Z,9.73
2018-09-06T12:27:30.215Z,9.03
2018-09-06T12:29:57.567Z,11.93
2018-09-06T12:32:25.084Z,9.03
2018-09-06T12:34:52.447Z,5.20
2018-09-06T12:37:19.803Z,5.33
2018-09-06T12:39:47.153Z,6.67
2018-09-06T12:42:14.507Z,5.93
2018-09-06T12:44:42.343Z,4.07
2018-09-06T12:47:09.859Z,5.93
2018-09-06T12:49:37.270Z,5.30
2018-09-06T12:52:04.583Z,10.80
2018-09-06T12:54:32.009Z,4.20
2018-09-06T12:56:59.375Z,6.07
2018-09-06T12:59:26.762Z,3.73
2018-09-06T13:01:54.115Z,4.53
2018-09-06T13:04:21.456Z,4.17
2018-09-06T13:06:48.814Z,4.47
2018-09-06T13:09:16.168Z,4.93
2018-09-06T13:11:43.559Z,3.63
2018-09-06T13:14:10.902Z,4.03
2018-09-06T13:16:38.233Z,4.73
2018-09-06T13:19:05.580Z,6.30
2018-09-06T13:21:33.099Z,4.33
2018-09-06T13:24:00.441Z,5.87
2018-09-06T13:26:27.798Z,8.90
2018-09-06T13:28:55.151Z,6.10
2018-09-06T13:31:22.563Z,9.40
2018-09-06T13:33:49.904Z,6.20
2018-09-06T13:36:17.252Z,9.60
2018-09-06T13:38:44.607Z,8.17
2018-09-06T13:41:11.987Z,6.33
2018-09-06T13:43:39.369Z,7.10
2018-09-06T13:46:06.726Z,7.87
2018-09-06T13:48:34.099Z,8.33
2018-09-06T13:51:01.484Z,6.03
2018-09-06T13:53:28.864Z,7.30
2018-09-06T13:55:56.260Z,8.93
2018-09-06T13:58:23.664Z,5.90
2018-09-06T14:00:50.990Z,6.67
2018-09-06T14:03:19.027Z,5.40
2018-09-06T14:05:46.377Z,5.10
2018-09-06T14:08:13.751Z,5.77
2018-09-06T14:10:41.078Z,5.60
2018-09-06T14:13:08.449Z,5.37
2018-09-06T14:15:35.770Z,5.33
2018-09-06T14:18:03.124Z,4.13
2018-09-06T14:20:30.484Z,6.23
2018-09-06T14:22:57.828Z,5.27
2018-09-06T14:25:25.187Z,6.70
2018-09-06T14:27:52.519Z,6.50
2018-09-06T14:30:19.882Z,3.07
2018-09-06T14:32:47.246Z,6.20
2018-09-06T14:35:14.645Z,6.00
2018-09-06T14:37:42.019Z,5.30
2018-09-06T14:40:09.364Z,5.33
2018-09-06T14:42:36.720Z,5.47
2018-09-06T14:45:04.416Z,7.70
2018-09-06T14:47:31.756Z,6.60
2018-09-06T14:49:59.131Z,2.87
2018-09-06T14:52:26.483Z,3.57
2018-09-06T14:54:53.844Z,5.27
2018-09-06T14:57:21.185Z,4.83
2018-09-06T14:59:48.544Z,8.77
2018-09-06T15:02:15.955Z,4.67
2018-09-06T15:04:43.347Z,6.63
2018-09-06T15:07:10.683Z,5.70
2018-09-06T15:09:38.030Z,5.20
2018-09-06T15:12:05.419Z,5.50
2018-09-06T15:14:32.760Z,8.67
2018-09-06T15:17:00.112Z,4.17
2018-09-06T15:19:27.457Z,3.33
2018-09-06T15:21:54.791Z,5.07
2018-09-06T15:24:22.148Z,3.00
2018-09-06T15:26:49.528Z,5.97
2018-09-06T15:29:16.879Z,7.67
2018-09-06T15:31:44.222Z,5.87
2018-09-06T15:34:11.573Z,9.80
2018-09-06T15:36:38.933Z,5.37
2018-09-06T15:39:49.064Z,3.53
2018-09-06T15:42:16.399Z,4.73
2018-09-06T15:44:43.763Z,8.77
2018-09-06T15:47:11.112Z,6.70
2018-09-06T15:49:38.570Z,6.30
2018-09-06T15:52:05.944Z,7.33
2018-09-06T15:54:33.296Z,6.57
2018-09-06T15:57:00.647Z,4.97
2018-09-06T15:59:28.052Z,5.17
2018-09-06T16:01:55.415Z,5.07
2018-09-06T16:04:22.795Z,5.77
2018-09-06T16:06:50.211Z,5.77
2018-09-06T16:09:17.560Z,5.43
2018-09-06T16:11:44.976Z,5.97
2018-09-06T16:14:12.275Z,5.33
2018-09-06T16:16:39.679Z,3.87
2018-09-06T16:19:07.118Z,3.33
2018-09-06T16:21:34.471Z,5.33
2018-09-06T16:24:01.882Z,4.33
2018-09-06T16:26:29.248Z,3.13
2018-09-06T16:28:56.604Z,5.83
2018-09-06T16:31:24.007Z,5.57
2018-09-06T16:33:51.461Z,5.67
2018-09-06T16:36:18.814Z,5.20
2018-09-06T16:38:46.201Z,5.37
2018-09-06T16:41:13.536Z,4.57
2018-09-06T16:43:40.908Z,5.10
2018-09-06T16:46:08.263Z,3.53
2018-09-06T16:48:35.619Z,4.77
2018-09-06T16:51:02.984Z,4.60
2018-09-06T16:53:30.423Z,4.20
2018-09-06T16:55:57.763Z,3.93
2018-09-06T16:58:25.096Z,6.90
2018-09-06T17:00:52.526Z,8.73
2018-09-06T17:03:19.858Z,4.37
2018-09-06T17:05:47.241Z,4.13
2018-09-06T17:08:14.600Z,5.30
2018-09-06T17:10:41.953Z,4.47
2018-09-06T17:13:09.337Z,5.23
2018-09-06T17:15:36.680Z,7.80
2018-09-06T17:18:04.040Z,3.07
2018-09-06T17:20:31.423Z,5.57
2018-09-06T17:22:58.762Z,7.13
2018-09-06T17:25:26.101Z,5.47
2018-09-06T17:27:53.509Z,4.90
2018-09-06T17:30:20.841Z,3.83
2018-09-06T17:32:48.231Z,5.30
2018-09-06T17:35:15.614Z,3.60
2018-09-06T17:37:42.964Z,5.67
2018-09-06T17:40:10.335Z,5.33
2018-09-06T17:42:37.750Z,4.53
2018-09-06T17:45:05.127Z,4.90
2018-09-06T17:47:32.613Z,4.53
2018-09-06T17:49:59.989Z,6.23
2018-09-06T17:52:27.408Z,5.77
2018-09-06T17:54:54.759Z,4.07
2018-09-06T17:57:22.119Z,2.53
2018-09-06T17:59:49.492Z,6.10
2018-09-06T18:02:16.848Z,2.23
2018-09-06T18:04:44.193Z,3.57
2018-09-06T18:07:11.591Z,3.77
2018-09-06T18:09:38.936Z,4.67
2018-09-06T18:12:06.292Z,2.87
2018-09-06T18:14:33.665Z,3.53
2018-09-06T18:17:01.024Z,5.87
2018-09-06T18:19:28.377Z,4.00
2018-09-06T18:21:55.727Z,3.70
2018-09-06T18:24:23.071Z,4.27
2018-09-06T18:26:50.449Z,2.77
2018-09-06T18:29:17.796Z,4.07
2018-09-06T18:31:45.191Z,4.57
2018-09-06T18:34:12.533Z,4.27
2018-09-06T18:36:39.918Z,5.27
2018-09-06T18:39:07.366Z,3.37
2018-09-06T18:41:34.808Z,2.57
2018-09-06T18:44:02.204Z,4.97
2018-09-06T18:46:29.517Z,4.10
2018-09-06T18:48:56.880Z,3.33
2018-09-06T18:51:24.232Z,4.13
2018-09-06T18:53:51.582Z,3.13
2018-09-06T18:56:18.928Z,3.77
2018-09-06T18:58:46.309Z,5.07
2018-09-06T19:01:13.698Z,3.43
2018-09-06T19:03:41.058Z,3.70
2018-09-06T19:06:08.416Z,7.13
2018-09-06T19:08:35.809Z,4.80
2018-09-06T19:11:03.278Z,4.27
2018-09-06T19:13:30.633Z,4.47
2018-09-06T19:15:57.988Z,6.83
2018-09-06T19:18:25.371Z,3.53
2018-09-06T19:20:52.703Z,5.93
2018-09-06T19:23:20.056Z,4.67
2018-09-06T19:25:47.402Z,3.43
2018-09-06T19:28:14.744Z,5.83
2018-09-06T19:30:42.129Z,3.20
2018-09-06T19:33:09.479Z,3.27
2018-09-06T19:35:36.884Z,4.97
2018-09-06T19:38:04.297Z,3.47
2018-09-06T19:40:31.655Z,3.53
2018-09-06T19:42:58.995Z,5.17
2018-09-06T19:45:26.356Z,3.87
2018-09-06T19:47:53.923Z,2.80
2018-09-06T19:50:21.281Z,4.43
2018-09-06T19:52:48.627Z,6.33
2018-09-06T19:55:16.264Z,6.77
2018-09-06T19:57:43.631Z,6.23
2018-09-06T20:00:11.099Z,5.33
2018-09-06T20:02:38.451Z,4.47
2018-09-06T20:05:05.831Z,4.77
2018-09-06T20:07:33.175Z,6.83
2018-09-06T20:10:00.509Z,7.37
2018-09-06T20:12:27.879Z,5.67
2018-09-06T20:14:55.225Z,7.27
2018-09-06T20:17:22.550Z,5.37
2018-09-06T20:19:49.882Z,5.47
2018-09-06T20:22:17.231Z,6.83
2018-09-06T20:24:44.591Z,4.37
2018-09-06T20:27:11.971Z,4.17
2018-09-06T20:29:39.367Z,5.33
2018-09-06T20:32:06.723Z,5.00
2018-09-06T20:34:34.059Z,5.50
2018-09-06T20:37:01.447Z,4.07
2018-09-06T20:39:28.817Z,4.53
2018-09-06T20:41:56.206Z,5.20
2018-09-06T20:44:23.578Z,4.30
2018-09-06T20:46:50.972Z,4.97
2018-09-06T20:49:18.309Z,5.03
2018-09-06T20:51:45.659Z,6.30
2018-09-06T20:54:13.052Z,6.07
2018-09-06T20:56:41.373Z,6.53
2018-09-06T20:59:08.733Z,8.07
2018-09-06T21:01:36.121Z,6.70
2018-09-06T21:04:06.612Z,5.40
2018-09-06T21:06:35.119Z,4.60
2018-09-06T21:09:03.999Z,5.00
2018-09-06T21:11:31.574Z,8.00
2018-09-06T21:13:58.919Z,5.90
2018-09-06T21:16:26.292Z,6.90
2018-09-06T21:18:53.624Z,5.33
2018-09-06T21:21:20.987Z,7.80
2018-09-06T21:23:48.376Z,5.40
2018-09-06T21:26:15.729Z,6.97
2018-09-06T21:28:44.051Z,7.13
2018-09-06T21:31:11.403Z,8.80
2018-09-06T21:33:38.800Z,5.47
2018-09-06T21:36:06.141Z,4.73
2018-09-06T21:38:33.480Z,6.57
2018-09-06T21:41:00.836Z,5.70
2018-09-06T21:43:28.235Z,5.40
2018-09-06T21:45:55.607Z,4.80
2018-09-06T21:48:23.023Z,5.17
2018-09-06T21:50:50.364Z,5.87
2018-09-06T21:53:17.715Z,6.90
2018-09-06T21:55:45.159Z,4.97
2018-09-06T21:58:12.488Z,7.07
2018-09-06T22:00:39.964Z,7.73
2018-09-06T22:03:13.864Z,7.20
2018-09-06T22:05:41.214Z,8.43
2018-09-06T22:08:08.539Z,10.20
2018-09-06T22:10:35.875Z,7.00
2018-09-06T22:13:03.230Z,7.13
2018-09-06T22:15:30.624Z,8.77
2018-09-06T22:17:57.964Z,7.60
2018-09-06T22:20:25.404Z,7.63
2018-09-06T22:22:52.731Z,10.00
2018-09-06T22:25:20.075Z,8.00
2018-09-06T22:27:47.415Z,6.00
2018-09-06T22:30:14.774Z,5.97
2018-09-06T22:32:42.123Z,8.20
2018-09-06T22:35:09.475Z,7.03
2018-09-06T22:37:36.800Z,8.93
2018-09-06T22:40:04.296Z,7.30
2018-09-06T22:42:31.711Z,7.40
2018-09-06T22:44:59.058Z,8.17
2018-09-06T22:47:26.390Z,9.23
2018-09-06T22:49:53.750Z,5.87
2018-09-06T22:52:21.128Z,8.60
2018-09-06T22:54:48.480Z,8.93
2018-09-06T22:57:15.874Z,8.93
2018-09-06T22:59:43.231Z,9.03
2018-09-06T23:02:10.571Z,9.23
2018-09-06T23:04:37.897Z,6.70
2018-09-06T23:07:05.267Z,7.40
2018-09-06T23:09:32.629Z,9.93
2018-09-06T23:11:59.975Z,6.87
2018-09-06T23:14:27.340Z,8.37
2018-09-06T23:16:54.678Z,6.97
2018-09-06T23:19:22.025Z,9.23
2018-09-06T23:21:49.386Z,9.50
2018-09-06T23:24:16.738Z,9.87
2018-09-06T23:26:44.075Z,8.17
2018-09-06T23:29:11.428Z,8.40
2018-09-06T23:31:38.784Z,8.33
2018-09-06T23:34:06.367Z,7.63
2018-09-06T23:36:33.795Z,7.23
2018-09-06T23:39:01.160Z,6.13
2018-09-06T23:41:28.479Z,10.03
2018-09-06T23:43:55.819Z,8.03
2018-09-06T23:46:23.224Z,7.57
2018-09-06T23:48:50.551Z,6.77
2018-09-06T23:51:17.883Z,7.13
2018-09-06T23:53:45.231Z,8.90
2018-09-06T23:56:12.567Z,6.50
2018-09-06T23:58:39.895Z,5.93
